createdAt,value
2022-08-14T00:01:55.873Z,3.50
2022-08-14T00:04:34.817Z,3.65
2022-08-14T00:07:06.806Z,3.63
2022-08-14T00:09:34.359Z,3.50
2022-08-14T00:12:23.913Z,3.70
2022-08-14T00:14:54.924Z,3.40
2022-08-14T00:17:22.764Z,3.45
2022-08-14T00:19:49.741Z,3.65
2022-08-14T00:22:22.083Z,3.33
2022-08-14T00:25:07.846Z,3.40
2022-08-14T00:27:35.363Z,3.50
2022-08-14T00:30:10.773Z,3.40
2022-08-14T00:32:52.483Z,3.40
2022-08-14T00:36:33.766Z,3.55
2022-08-14T00:38:12.860Z,3.60
2022-08-14T00:40:40.084Z,3.40
2022-08-14T00:43:13.465Z,3.58
2022-08-14T00:45:42.359Z,3.70
2022-08-14T00:48:10.395Z,3.40
2022-08-14T00:50:37.626Z,3.45
2022-08-14T00:53:05.691Z,3.30
2022-08-14T00:55:41.378Z,3.30
2022-08-14T00:58:32.800Z,3.33
2022-08-14T01:01:00.919Z,3.33
2022-08-14T01:03:30.878Z,3.60
2022-08-14T01:05:59.010Z,3.65
2022-08-14T01:08:57.369Z,3.50
2022-08-14T01:11:19.440Z,3.53
2022-08-14T01:13:55.786Z,3.63
2022-08-14T01:16:27.424Z,3.53
2022-08-14T01:19:13.571Z,3.40
2022-08-14T01:21:47.289Z,3.47
2022-08-14T01:24:28.995Z,3.35
2022-08-14T01:27:01.292Z,3.58
2022-08-14T01:29:58.287Z,3.50
2022-08-14T01:32:24.533Z,3.67
2022-08-14T01:35:20.562Z,3.80
2022-08-14T01:37:56.495Z,3.50
2022-08-14T01:40:33.025Z,3.50
2022-08-14T01:43:07.794Z,3.60
2022-08-14T01:45:40.432Z,3.80
2022-08-14T01:48:08.023Z,3.50
2022-08-14T01:50:41.825Z,4.00
2022-08-14T01:53:09.503Z,3.47
2022-08-14T01:55:38.552Z,3.75
2022-08-14T01:58:20.346Z,3.42
2022-08-14T02:00:56.489Z,3.60
2022-08-14T02:03:29.958Z,3.60
2022-08-14T02:06:00.010Z,3.60
2022-08-14T02:08:53.469Z,3.22
2022-08-14T02:11:23.867Z,3.60
2022-08-14T02:14:07.538Z,3.50
2022-08-14T02:16:43.291Z,3.40
2022-08-14T02:19:14.546Z,3.38
2022-08-14T02:21:47.193Z,3.30
2022-08-14T02:24:39.262Z,3.30
2022-08-14T02:28:23.109Z,3.28
2022-08-14T02:29:59.251Z,3.50
2022-08-14T02:32:30.532Z,3.28
2022-08-14T02:35:17.802Z,3.10
2022-08-14T02:37:49.883Z,3.10
2022-08-14T02:40:18.614Z,3.15
2022-08-14T02:42:54.140Z,3.40
2022-08-14T02:45:22.222Z,3.13
2022-08-14T02:47:49.723Z,3.30
2022-08-14T02:50:27.257Z,3.20
2022-08-14T02:53:07.399Z,3.20
2022-08-14T02:55:35.447Z,3.10
2022-08-14T02:58:05.801Z,3.05
2022-08-14T03:00:35.214Z,3.20
2022-08-14T03:03:02.986Z,3.20
2022-08-14T03:05:36.091Z,3.40
2022-08-14T03:08:15.111Z,3.05
2022-08-14T03:10:48.653Z,3.20
2022-08-14T03:13:19.801Z,3.17
2022-08-14T03:15:55.101Z,3.00
2022-08-14T03:18:31.793Z,3.17
2022-08-14T03:21:05.799Z,3.30
2022-08-14T03:23:38.781Z,3.20
2022-08-14T03:26:12.651Z,3.00
2022-08-14T03:28:47.693Z,3.10
2022-08-14T03:31:15.102Z,3.10
2022-08-14T03:33:42.424Z,3.00
2022-08-14T03:37:51.953Z,3.05
2022-08-14T03:39:16.050Z,2.73
2022-08-14T03:41:55.673Z,2.80
2022-08-14T03:45:18.685Z,3.20
2022-08-14T03:47:12.049Z,3.10
2022-08-14T03:49:41.880Z,3.20
2022-08-14T03:52:28.217Z,3.13
2022-08-14T03:54:56.396Z,3.10
2022-08-14T03:57:23.821Z,3.15
2022-08-14T03:59:50.788Z,3.17
2022-08-14T04:02:37.194Z,2.90
2022-08-14T04:05:12.360Z,3.20
2022-08-14T04:07:49.377Z,3.08
2022-08-14T04:10:17.639Z,3.30
2022-08-14T04:13:03.545Z,2.88
2022-08-14T04:15:31.317Z,3.15
2022-08-14T04:17:59.310Z,3.20
2022-08-14T04:20:27.891Z,3.10
2022-08-14T04:22:55.629Z,3.25
2022-08-14T04:25:22.627Z,3.13
2022-08-14T04:28:02.278Z,3.05
2022-08-14T04:30:33.066Z,3.10
2022-08-14T04:33:10.598Z,3.17
2022-08-14T04:35:55.970Z,3.07
2022-08-14T04:38:42.192Z,3.20
2022-08-14T04:41:30.321Z,3.10
2022-08-14T04:43:57.930Z,3.10
2022-08-14T04:46:55.221Z,3.10
2022-08-14T04:49:15.140Z,3.30
2022-08-14T04:51:46.933Z,3.00
2022-08-14T04:54:24.606Z,3.10
2022-08-14T04:56:51.390Z,3.10
2022-08-14T04:59:21.968Z,3.10
2022-08-14T05:01:52.738Z,3.00
2022-08-14T05:04:22.895Z,3.00
2022-08-14T05:06:55.255Z,3.25
2022-08-14T05:09:23.859Z,3.17
2022-08-14T05:11:51.503Z,3.10
2022-08-14T05:14:45.545Z,3.27
2022-08-14T05:17:06.899Z,3.05
2022-08-14T05:19:33.935Z,3.00
2022-08-14T05:22:16.549Z,2.90
2022-08-14T05:24:50.434Z,3.00
2022-08-14T05:27:22.969Z,3.13
2022-08-14T05:29:51.832Z,3.10
2022-08-14T05:32:18.587Z,2.88
2022-08-14T05:34:47.095Z,3.15
2022-08-14T05:37:15.270Z,2.90
2022-08-14T05:39:42.782Z,2.90
2022-08-14T05:42:10.145Z,2.90
2022-08-14T05:44:49.379Z,2.97
2022-08-14T05:47:17.951Z,3.10
2022-08-14T05:49:46.151Z,2.97
2022-08-14T05:52:15.106Z,2.90
2022-08-14T05:54:44.980Z,2.90
2022-08-14T05:57:11.615Z,3.10
2022-08-14T05:59:40.033Z,2.80
2022-08-14T06:02:10.080Z,3.00
2022-08-14T06:04:38.038Z,3.10
2022-08-14T06:07:05.069Z,2.90
2022-08-14T06:09:35.659Z,2.80
2022-08-14T06:12:12.079Z,2.70
2022-08-14T06:14:39.369Z,2.97
2022-08-14T06:17:06.486Z,2.80
2022-08-14T06:19:33.198Z,2.80
2022-08-14T06:21:59.876Z,3.00
2022-08-14T06:24:27.157Z,2.60
2022-08-14T06:26:56.648Z,2.75
2022-08-14T06:29:32.477Z,2.80
2022-08-14T06:32:37.808Z,2.92
2022-08-14T06:35:09.671Z,2.65
2022-08-14T06:37:49.179Z,2.72
2022-08-14T06:40:26.724Z,2.60
2022-08-14T06:42:56.785Z,2.70
2022-08-14T06:45:27.745Z,2.50
2022-08-14T06:47:55.298Z,2.70
2022-08-14T06:50:28.611Z,2.72
2022-08-14T06:52:58.415Z,2.50
2022-08-14T06:55:28.210Z,2.63
2022-08-14T06:57:57.923Z,2.85
2022-08-14T07:00:30.834Z,2.50
2022-08-14T07:03:17.856Z,2.75
2022-08-14T07:05:55.922Z,2.40
2022-08-14T07:08:31.399Z,2.50
2022-08-14T07:11:01.145Z,2.55
2022-08-14T07:13:30.354Z,2.40
2022-08-14T07:15:58.883Z,2.33
2022-08-14T07:18:27.645Z,2.23
2022-08-14T07:20:56.082Z,2.65
2022-08-14T07:23:24.630Z,2.58
2022-08-14T07:25:55.652Z,2.40
2022-08-14T07:28:28.883Z,2.33
2022-08-14T07:31:04.311Z,2.40
2022-08-14T07:33:42.039Z,2.50
2022-08-14T07:36:26.411Z,2.30
2022-08-14T07:38:54.714Z,2.30
2022-08-14T07:41:22.866Z,2.40
2022-08-14T07:43:55.942Z,2.30
2022-08-14T07:46:28.132Z,2.30
2022-08-14T07:48:56.876Z,2.30
2022-08-14T07:51:23.830Z,2.35
2022-08-14T07:53:57.066Z,2.30
2022-08-14T07:56:48.239Z,2.20
2022-08-14T07:59:11.574Z,2.20
2022-08-14T08:01:51.400Z,2.03
2022-08-14T08:04:24.531Z,2.33
2022-08-14T08:06:53.127Z,2.25
2022-08-14T08:09:24.938Z,2.15
2022-08-14T08:12:00.950Z,2.20
2022-08-14T08:14:34.157Z,2.30
2022-08-14T08:17:23.325Z,2.20
2022-08-14T08:19:51.614Z,2.17
2022-08-14T08:22:21.158Z,2.20
2022-08-14T08:24:50.127Z,2.20
2022-08-14T08:27:19.768Z,2.17
2022-08-14T08:29:50.888Z,2.50
2022-08-14T08:32:18.058Z,2.17
2022-08-14T08:34:46.140Z,2.00
2022-08-14T08:37:13.746Z,2.10
2022-08-14T08:40:01.525Z,2.10
2022-08-14T08:42:31.430Z,2.30
2022-08-14T08:45:06.577Z,2.20
2022-08-14T08:47:41.613Z,2.35
2022-08-14T08:50:31.042Z,2.03
2022-08-14T08:53:00.009Z,2.13
2022-08-14T08:55:41.034Z,2.20
2022-08-14T08:58:20.167Z,2.00
2022-08-14T09:00:54.733Z,1.98
2022-08-14T09:03:25.485Z,2.15
2022-08-14T09:05:56.233Z,2.10
2022-08-14T09:08:31.391Z,2.05
2022-08-14T09:11:01.789Z,2.03
2022-08-14T09:13:30.674Z,2.13
2022-08-14T09:16:00.915Z,2.05
2022-08-14T09:18:45.822Z,2.10
2022-08-14T09:21:13.227Z,2.10
2022-08-14T09:24:29.478Z,2.20
2022-08-14T09:26:30.089Z,2.10
2022-08-14T09:28:59.192Z,2.33
2022-08-14T09:31:27.668Z,2.20
2022-08-14T09:34:27.364Z,2.20
2022-08-14T09:37:27.455Z,2.20
2022-08-14T09:40:10.192Z,2.30
2022-08-14T09:43:11.930Z,2.15
2022-08-14T09:45:52.806Z,2.30
2022-08-14T09:48:30.276Z,2.20
2022-08-14T09:54:19.555Z,2.20
2022-08-14T09:56:31.031Z,2.30
2022-08-14T09:58:59.933Z,2.30
2022-08-14T10:01:36.420Z,2.40
2022-08-14T10:04:06.932Z,2.10
2022-08-14T10:06:51.243Z,2.30
2022-08-14T10:09:18.959Z,2.40
2022-08-14T10:11:59.755Z,2.40
2022-08-14T10:14:35.658Z,2.30
2022-08-14T10:17:06.517Z,2.58
2022-08-14T10:19:35.967Z,2.40
2022-08-14T10:23:14.195Z,2.40
2022-08-14T10:24:57.481Z,2.60
2022-08-14T10:27:27.230Z,2.40
2022-08-14T10:29:58.232Z,2.33
2022-08-14T10:32:28.240Z,2.42
2022-08-14T10:35:13.620Z,2.63
2022-08-14T10:37:51.930Z,2.55
2022-08-14T10:40:43.560Z,2.30
2022-08-14T10:43:26.741Z,2.42
2022-08-14T10:46:03.369Z,2.35
2022-08-14T10:49:02.743Z,2.72
2022-08-14T10:51:33.944Z,2.50
2022-08-14T10:54:26.060Z,2.70
2022-08-14T10:56:55.704Z,2.60
2022-08-14T10:59:34.882Z,2.70
2022-08-14T11:02:03.967Z,2.40
2022-08-14T11:04:31.924Z,2.70
2022-08-14T11:07:00.236Z,2.40
2022-08-14T11:09:31.798Z,2.60
2022-08-14T11:12:34.730Z,2.60
2022-08-14T11:15:02.203Z,2.63
2022-08-14T11:17:32.197Z,2.73
2022-08-14T11:20:01.374Z,2.63
2022-08-14T11:22:52.921Z,2.60
2022-08-14T11:25:20.354Z,2.60
2022-08-14T11:27:49.411Z,2.65
2022-08-14T11:30:51.296Z,2.60
2022-08-14T11:33:10.285Z,2.60
2022-08-14T11:35:47.559Z,2.70
2022-08-14T11:38:16.421Z,2.80
2022-08-14T11:40:47.088Z,2.70
2022-08-14T11:43:15.322Z,2.60
2022-08-14T11:45:47.689Z,2.75
2022-08-14T11:49:01.961Z,2.60
2022-08-14T11:51:14.463Z,2.70
2022-08-14T11:53:43.689Z,2.90
2022-08-14T11:56:12.782Z,2.80
2022-08-14T11:58:40.394Z,2.75
2022-08-14T12:01:10.087Z,2.63
2022-08-14T12:03:51.977Z,2.60
2022-08-14T12:06:28.720Z,2.72
2022-08-14T12:09:02.679Z,2.70
2022-08-14T12:11:43.082Z,2.60
2022-08-14T12:14:29.097Z,2.63
2022-08-14T12:17:12.146Z,2.50
2022-08-14T12:19:50.654Z,2.80
2022-08-14T12:22:30.275Z,2.63
2022-08-14T12:24:57.734Z,2.60
2022-08-14T12:27:46.731Z,2.60
2022-08-14T12:30:29.452Z,2.60
2022-08-14T12:33:08.136Z,2.70
2022-08-14T12:35:39.976Z,2.40
2022-08-14T12:38:07.398Z,2.53
2022-08-14T12:40:34.121Z,2.38
2022-08-14T12:43:03.216Z,2.50
2022-08-14T12:45:33.607Z,2.43
2022-08-14T12:48:21.075Z,2.30
2022-08-14T12:50:52.120Z,2.40
2022-08-14T12:53:19.783Z,2.30
2022-08-14T12:56:17.599Z,2.40
2022-08-14T12:58:51.946Z,2.20
2022-08-14T13:01:27.980Z,2.30
2022-08-14T13:04:15.301Z,2.30
2022-08-14T13:06:50.491Z,2.30
2022-08-14T13:09:21.053Z,2.20
2022-08-14T13:11:59.036Z,2.30
2022-08-14T13:14:39.433Z,2.10
2022-08-14T13:17:07.452Z,1.98
2022-08-14T13:19:40.503Z,1.80
2022-08-14T13:22:10.246Z,1.90
2022-08-14T13:24:47.244Z,1.83
2022-08-14T13:27:13.936Z,1.77
2022-08-14T13:29:43.917Z,1.73
2022-08-14T13:32:13.979Z,1.77
2022-08-14T13:34:43.590Z,1.70
2022-08-14T13:37:14.269Z,1.90
2022-08-14T13:39:53.656Z,1.80
2022-08-14T13:42:30.159Z,1.80
2022-08-14T13:44:59.793Z,1.70
2022-08-14T13:47:33.033Z,1.77
2022-08-14T13:50:04.471Z,1.50
2022-08-14T13:52:51.386Z,1.63
2022-08-14T13:55:22.904Z,1.73
2022-08-14T13:58:04.186Z,1.60
2022-08-14T14:00:52.825Z,1.70
2022-08-14T14:03:23.242Z,1.80
2022-08-14T14:05:54.335Z,1.50
2022-08-14T14:08:46.022Z,1.80
2022-08-14T14:11:10.370Z,1.60
2022-08-14T14:13:41.803Z,1.70
2022-08-14T14:16:15.522Z,1.75
2022-08-14T14:19:06.823Z,1.80
2022-08-14T14:21:36.989Z,1.70
2022-08-14T14:24:06.006Z,1.83
2022-08-14T14:26:33.228Z,1.80
2022-08-14T14:29:03.311Z,1.90
2022-08-14T14:31:31.149Z,1.80
2022-08-14T14:34:07.644Z,1.65
2022-08-14T14:36:50.139Z,1.70
2022-08-14T14:39:22.176Z,1.90
2022-08-14T14:41:55.993Z,1.70
2022-08-14T14:44:25.884Z,1.52
2022-08-14T14:46:53.785Z,1.70
2022-08-14T14:49:22.300Z,1.70
2022-08-14T14:51:58.898Z,1.52
2022-08-14T14:54:30.867Z,1.60
2022-08-14T14:57:03.512Z,1.60
2022-08-14T14:59:33.590Z,1.60
2022-08-14T15:02:07.866Z,1.60
2022-08-14T15:04:37.931Z,1.63
2022-08-14T15:07:05.630Z,1.60
2022-08-14T15:09:33.947Z,1.42
2022-08-14T15:12:00.709Z,1.70
2022-08-14T15:14:57.042Z,1.58
2022-08-14T15:17:14.153Z,1.50
2022-08-14T15:19:42.016Z,1.60
2022-08-14T15:22:25.078Z,1.50
2022-08-14T15:24:52.122Z,1.77
2022-08-14T15:27:26.276Z,1.40
2022-08-14T15:29:53.690Z,1.60
2022-08-14T15:32:23.124Z,1.60
2022-08-14T15:34:52.888Z,1.70
2022-08-14T15:37:22.943Z,1.40
2022-08-14T15:39:50.479Z,1.50
2022-08-14T15:42:20.472Z,1.50
2022-08-14T15:44:58.205Z,1.55
2022-08-14T15:47:30.050Z,1.55
2022-08-14T15:50:00.209Z,1.50
2022-08-14T15:52:32.826Z,1.65
2022-08-14T15:55:04.952Z,1.50
2022-08-14T15:57:32.642Z,1.55
2022-08-14T16:00:34.045Z,1.70
2022-08-14T16:03:08.690Z,1.80
2022-08-14T16:05:38.621Z,1.90
2022-08-14T16:08:27.391Z,1.73
2022-08-14T16:10:56.379Z,1.77
2022-08-14T16:13:39.212Z,1.60
2022-08-14T16:16:47.516Z,1.70
2022-08-14T16:18:58.245Z,1.90
2022-08-14T16:21:31.451Z,1.80
2022-08-14T16:24:00.446Z,1.90
2022-08-14T16:26:29.886Z,2.00
2022-08-14T16:29:15.388Z,1.80
2022-08-14T16:31:44.847Z,1.80
2022-08-14T16:34:44.711Z,1.90
2022-08-14T16:37:03.182Z,1.90
2022-08-14T16:39:30.001Z,2.00
2022-08-14T16:41:59.606Z,2.10
2022-08-14T16:44:39.100Z,1.73
2022-08-14T16:47:13.063Z,1.80
2022-08-14T16:50:03.994Z,1.92
2022-08-14T16:52:44.209Z,2.07
2022-08-14T16:55:13.932Z,1.90
2022-08-14T16:57:51.905Z,1.83
2022-08-14T17:00:44.288Z,1.90
2022-08-14T17:03:12.523Z,1.90
2022-08-14T17:05:46.627Z,1.95
2022-08-14T17:08:32.282Z,1.83
2022-08-14T17:11:10.984Z,1.80
2022-08-14T17:13:59.627Z,2.00
2022-08-14T17:16:35.770Z,1.92
2022-08-14T17:19:05.339Z,1.90
2022-08-14T17:21:37.916Z,2.00
2022-08-14T17:24:56.086Z,1.98
2022-08-14T17:27:03.565Z,2.17
2022-08-14T17:29:33.859Z,2.15
2022-08-14T17:32:28.261Z,2.25
2022-08-14T17:35:01.571Z,2.20
2022-08-14T17:37:45.259Z,2.40
2022-08-14T17:40:25.881Z,2.10
2022-08-14T17:43:02.240Z,2.30
2022-08-14T17:45:38.971Z,2.13
2022-08-14T17:49:16.054Z,2.05
2022-08-14T17:51:12.502Z,2.20
2022-08-14T17:53:52.852Z,2.25
2022-08-14T17:56:29.059Z,2.00
2022-08-14T17:59:02.508Z,2.10
2022-08-14T18:01:35.832Z,2.38
2022-08-14T18:04:24.455Z,2.50
2022-08-14T18:06:57.728Z,2.80
2022-08-14T18:09:49.835Z,2.70
2022-08-14T18:12:36.387Z,2.73
2022-08-14T18:15:16.818Z,2.70
2022-08-14T18:17:52.579Z,2.60
2022-08-14T18:21:41.217Z,2.40
2022-08-14T18:23:13.426Z,2.40
2022-08-14T18:25:52.984Z,2.50
2022-08-14T18:28:48.121Z,2.13
2022-08-14T18:31:42.374Z,2.00
2022-08-14T18:34:31.653Z,1.98
2022-08-14T18:37:18.348Z,1.80
2022-08-14T18:40:01.781Z,2.10
2022-08-14T18:42:30.349Z,1.80
2022-08-14T18:45:01.047Z,1.80
2022-08-14T18:47:32.714Z,1.70
2022-08-14T18:50:27.921Z,1.83
2022-08-14T18:53:06.821Z,1.77
2022-08-14T18:55:33.563Z,1.80
2022-08-14T18:58:00.944Z,1.80
2022-08-14T19:00:51.033Z,1.70
2022-08-14T19:03:18.432Z,1.70
2022-08-14T19:05:49.377Z,1.80
2022-08-14T19:08:24.857Z,1.60
2022-08-14T19:10:57.321Z,1.80
2022-08-14T19:13:47.913Z,1.80
2022-08-14T19:16:29.182Z,2.17
2022-08-14T19:19:00.045Z,2.03
2022-08-14T19:21:30.606Z,1.92
2022-08-14T19:24:29.174Z,1.90
2022-08-14T19:27:19.689Z,1.73
2022-08-14T19:29:51.465Z,1.90
2022-08-14T19:32:36.537Z,1.80
2022-08-14T19:35:55.015Z,1.73
2022-08-14T19:38:57.232Z,1.90
2022-08-14T19:41:34.382Z,1.80
2022-08-14T19:44:31.633Z,1.92
2022-08-14T19:47:01.938Z,2.00
2022-08-14T19:50:07.955Z,2.00
2022-08-14T19:52:35.241Z,2.00
2022-08-14T19:55:19.451Z,1.98
2022-08-14T19:57:52.288Z,1.67
2022-08-14T20:00:28.944Z,2.00
2022-08-14T20:03:11.301Z,2.00
2022-08-14T20:05:42.822Z,2.00
2022-08-14T20:09:06.114Z,1.92
2022-08-14T20:11:03.250Z,1.90
2022-08-14T20:13:42.482Z,1.92
2022-08-14T20:16:12.830Z,2.20
2022-08-14T20:18:51.204Z,2.33
2022-08-14T20:21:37.523Z,2.22
2022-08-14T20:24:34.751Z,2.30
2022-08-14T20:27:33.327Z,2.30
2022-08-14T20:30:32.971Z,2.30
2022-08-14T20:33:10.975Z,2.40
2022-08-14T20:35:46.871Z,2.38
2022-08-14T20:38:30.364Z,2.10
2022-08-14T20:41:09.725Z,2.38
2022-08-14T20:43:58.540Z,2.50
2022-08-14T20:46:42.877Z,2.40
2022-08-14T20:49:13.856Z,2.38
2022-08-14T20:51:47.653Z,2.40
2022-08-14T20:54:34.673Z,2.38
2022-08-14T20:57:19.453Z,2.42
2022-08-14T20:59:57.432Z,2.30
2022-08-14T21:02:46.206Z,2.50
2022-08-14T21:05:20.194Z,2.47
2022-08-14T21:07:51.125Z,2.40
2022-08-14T21:10:36.139Z,2.38
2022-08-14T21:13:52.625Z,2.38
2022-08-14T21:15:57.876Z,2.58
2022-08-14T21:18:32.822Z,2.00
2022-08-14T21:21:04.696Z,2.40
2022-08-14T21:23:54.945Z,2.30
2022-08-14T21:26:50.767Z,2.47
2022-08-14T21:29:14.476Z,2.40
2022-08-14T21:31:42.229Z,2.40
2022-08-14T21:34:27.684Z,2.50
2022-08-14T21:36:56.990Z,2.60
2022-08-14T21:39:24.545Z,2.58
2022-08-14T21:41:54.313Z,2.28
2022-08-14T21:44:42.981Z,2.22
2022-08-14T21:47:12.375Z,2.33
2022-08-14T21:49:40.227Z,2.20
2022-08-14T21:52:51.556Z,2.35
2022-08-14T21:55:09.431Z,2.42
2022-08-14T21:57:56.466Z,2.25
2022-08-14T22:00:30.284Z,2.40
2022-08-14T22:03:01.644Z,2.45
2022-08-14T22:05:29.741Z,2.38
2022-08-14T22:07:57.169Z,2.53
2022-08-14T22:10:24.449Z,2.42
2022-08-14T22:12:59.071Z,2.60
2022-08-14T22:15:28.268Z,2.70
2022-08-14T22:17:55.313Z,2.45
2022-08-14T22:20:24.376Z,2.58
2022-08-14T22:22:55.974Z,2.67
2022-08-14T22:25:34.037Z,2.47
2022-08-14T22:28:04.182Z,2.30
2022-08-14T22:30:31.200Z,2.50
2022-08-14T22:33:00.002Z,2.58
2022-08-14T22:35:27.895Z,2.60
2022-08-14T22:38:34.765Z,2.28
2022-08-14T22:41:00.372Z,2.30
2022-08-14T22:43:31.954Z,2.67
2022-08-14T22:46:02.527Z,2.50
2022-08-14T22:48:29.730Z,2.50
2022-08-14T22:50:56.404Z,2.78
2022-08-14T22:53:24.481Z,2.55
2022-08-14T22:55:56.737Z,2.40
2022-08-14T22:58:30.637Z,2.40
2022-08-14T23:13:55.132Z,2.60
2022-08-14T23:16:24.153Z,2.70
2022-08-14T23:30:31.435Z,2.87
2022-08-14T23:33:02.626Z,2.77
2022-08-14T23:35:29.536Z,2.63
2022-08-14T23:38:02.470Z,2.70
2022-08-14T23:40:30.480Z,2.40
2022-08-14T23:43:09.931Z,2.73
2022-08-14T23:46:35.223Z,2.50
2022-08-14T23:49:06.505Z,2.77
2022-08-14T23:51:36.606Z,2.30
2022-08-14T23:54:48.494Z,2.70
